createdAt,value
2019-02-12T00:01:56.951Z,11.07
2019-02-12T00:04:23.011Z,9.13
2019-02-12T00:06:49.049Z,9.03
2019-02-12T00:09:15.065Z,9.57
2019-02-12T00:11:41.105Z,9.67
2019-02-12T00:14:07.139Z,9.90
2019-02-12T00:16:33.175Z,11.63
2019-02-12T00:18:59.220Z,11.50
2019-02-12T00:21:25.240Z,10.23
2019-02-12T00:23:51.284Z,10.50
2019-02-12T00:26:17.320Z,11.07
2019-02-12T00:28:43.360Z,9.67
2019-02-12T00:31:09.479Z,9.27
2019-02-12T00:33:35.523Z,9.27
2019-02-12T00:36:01.547Z,9.70
2019-02-12T00:38:27.584Z,10.57
2019-02-12T00:40:53.623Z,9.60
2019-02-12T00:43:19.662Z,11.17
2019-02-12T00:45:45.707Z,11.73
2019-02-12T00:48:11.736Z,14.77
2019-02-12T00:50:37.778Z,12.77
2019-02-12T00:53:03.797Z,14.28
2019-02-12T00:55:29.832Z,9.90
2019-02-12T00:57:55.868Z,9.53
2019-02-12T01:00:21.903Z,9.07
2019-02-12T01:02:47.953Z,10.23
2019-02-12T01:05:13.964Z,10.27
2019-02-12T01:07:40.012Z,10.73
2019-02-12T01:10:09.051Z,11.57
2019-02-12T01:12:35.277Z,11.77
2019-02-12T01:15:01.412Z,10.73
2019-02-12T01:17:27.437Z,12.47
2019-02-12T01:19:53.468Z,12.90
2019-02-12T01:22:19.483Z,11.90
2019-02-12T01:24:45.527Z,12.50
2019-02-12T01:27:12.584Z,12.33
2019-02-12T01:29:38.596Z,11.50
2019-02-12T01:32:04.661Z,11.03
2019-02-12T01:34:30.697Z,9.63
2019-02-12T01:36:56.744Z,11.43
2019-02-12T01:39:22.767Z,10.20
2019-02-12T01:41:48.788Z,11.00
2019-02-12T01:44:14.836Z,11.60
2019-02-12T01:46:40.854Z,11.30
2019-02-12T01:49:06.879Z,11.77
2019-02-12T01:51:35.090Z,11.70
2019-02-12T01:54:00.944Z,11.73
2019-02-12T01:56:26.968Z,12.60
2019-02-12T01:58:55.101Z,12.83
2019-02-12T02:01:21.126Z,13.20
2019-02-12T02:03:47.176Z,13.03
2019-02-12T02:06:13.216Z,12.83
2019-02-12T02:08:39.260Z,12.60
2019-02-12T02:11:05.300Z,10.60
2019-02-12T02:13:37.487Z,12.40
2019-02-12T02:16:03.516Z,12.00
2019-02-12T02:18:29.528Z,12.63
2019-02-12T02:20:55.867Z,12.73
2019-02-12T02:23:21.876Z,12.30
2019-02-12T02:25:47.907Z,11.97
2019-02-12T02:28:13.924Z,12.30
2019-02-12T02:30:39.941Z,11.37
2019-02-12T02:33:05.975Z,12.17
2019-02-12T02:35:32.005Z,13.17
2019-02-12T02:37:58.031Z,11.93
2019-02-12T02:40:24.050Z,13.20
2019-02-12T02:42:50.079Z,12.93
2019-02-12T02:45:16.099Z,12.63
2019-02-12T02:47:42.132Z,16.10
2019-02-12T02:50:09.057Z,13.77
2019-02-12T02:52:35.089Z,13.70
2019-02-12T02:55:01.138Z,14.00
2019-02-12T02:57:27.172Z,14.97
2019-02-12T02:59:53.179Z,14.90
2019-02-12T03:02:19.215Z,13.20
2019-02-12T03:04:45.248Z,13.50
2019-02-12T03:07:11.284Z,15.07
2019-02-12T03:09:37.299Z,14.57
2019-02-12T03:12:03.346Z,15.27
2019-02-12T03:14:29.362Z,13.97
2019-02-12T03:16:55.396Z,14.53
2019-02-12T03:19:21.439Z,14.40
2019-02-12T03:21:47.451Z,13.17
2019-02-12T03:24:13.483Z,13.53
2019-02-12T03:26:39.495Z,14.50
2019-02-12T03:29:05.538Z,14.60
2019-02-12T03:31:31.578Z,14.37
2019-02-12T03:33:57.612Z,12.47
2019-02-12T03:36:23.629Z,13.73
2019-02-12T03:38:49.699Z,13.93
2019-02-12T03:41:15.720Z,13.33
2019-02-12T03:43:41.767Z,13.97
2019-02-12T03:46:07.774Z,14.30
2019-02-12T03:48:33.817Z,12.90
2019-02-12T03:50:59.833Z,12.40
2019-02-12T03:53:27.032Z,12.67
2019-02-12T03:55:53.044Z,14.80
2019-02-12T03:58:19.088Z,14.33
2019-02-12T04:00:45.108Z,12.80
2019-02-12T04:03:11.148Z,12.87
2019-02-12T04:05:37.667Z,13.50
2019-02-12T04:08:04.135Z,14.47
2019-02-12T04:10:30.261Z,14.97
2019-02-12T04:12:56.288Z,13.93
2019-02-12T04:15:28.441Z,20.97
2019-02-12T04:17:54.454Z,24.90
2019-02-12T04:20:20.500Z,22.67
2019-02-12T04:22:46.516Z,18.27
2019-02-12T04:25:12.573Z,18.27
2019-02-12T04:27:38.584Z,16.43
2019-02-12T04:30:26.500Z,17.83
2019-02-12T04:32:52.533Z,17.90
2019-02-12T04:35:18.548Z,15.80
2019-02-12T04:37:44.668Z,14.57
2019-02-12T04:40:10.808Z,16.00
2019-02-12T04:42:36.828Z,14.33
2019-02-12T04:45:24.648Z,14.50
2019-02-12T04:47:50.699Z,15.57
2019-02-12T04:50:16.737Z,20.95
2019-02-12T04:52:42.753Z,17.20
2019-02-12T04:55:11.874Z,15.93
2019-02-12T04:57:39.979Z,14.63
2019-02-12T05:00:09.392Z,15.33
2019-02-12T05:02:35.455Z,23.73
2019-02-12T05:05:01.541Z,19.07
2019-02-12T05:07:27.543Z,14.90
2019-02-12T05:09:53.579Z,14.20
2019-02-12T05:12:19.744Z,15.27
2019-02-12T05:14:50.809Z,15.10
2019-02-12T05:17:16.832Z,13.40
2019-02-12T05:19:42.880Z,15.50
2019-02-12T05:22:08.897Z,14.50
2019-02-12T05:24:34.962Z,14.23
2019-02-12T05:27:00.981Z,14.07
2019-02-12T05:29:28.083Z,14.93
2019-02-12T05:31:54.104Z,14.67
2019-02-12T05:34:20.140Z,14.10
2019-02-12T05:36:46.152Z,13.33
2019-02-12T05:39:12.199Z,14.63
2019-02-12T05:41:38.221Z,14.70
2019-02-12T05:44:04.269Z,15.20
2019-02-12T05:46:30.287Z,16.27
2019-02-12T05:48:56.331Z,15.43
2019-02-12T05:51:24.011Z,16.53
2019-02-12T05:53:53.263Z,14.80
2019-02-12T05:56:19.693Z,16.00
2019-02-12T05:58:58.507Z,15.43
2019-02-12T06:01:24.597Z,15.83
2019-02-12T06:03:50.644Z,16.63
2019-02-12T06:06:17.285Z,16.37
2019-02-12T06:08:43.524Z,16.80
2019-02-12T06:11:09.535Z,18.07
2019-02-12T06:13:35.580Z,18.87
2019-02-12T06:16:01.600Z,18.23
2019-02-12T06:18:27.631Z,16.90
2019-02-12T06:20:53.631Z,16.10
2019-02-12T06:23:19.655Z,16.13
2019-02-12T06:25:46.724Z,20.37
2019-02-12T06:28:12.759Z,18.83
2019-02-12T06:30:38.768Z,16.90
2019-02-12T06:33:07.708Z,15.27
2019-02-12T06:35:32.739Z,14.97
2019-02-12T06:37:58.754Z,15.70
2019-02-12T06:40:44.660Z,13.87
2019-02-12T06:43:10.725Z,14.00
2019-02-12T06:45:36.736Z,14.43
2019-02-12T06:48:03.003Z,14.30
2019-02-12T06:50:29.015Z,14.70
2019-02-12T06:52:55.022Z,15.30
2019-02-12T06:55:21.054Z,15.90
2019-02-12T06:57:47.059Z,20.82
2019-02-12T07:00:13.783Z,15.97
2019-02-12T07:03:14.927Z,17.30
2019-02-12T07:05:50.603Z,20.77
2019-02-12T07:08:35.655Z,20.70
2019-02-12T07:11:17.299Z,21.37
2019-02-12T07:13:56.377Z,23.57
2019-02-12T07:16:26.292Z,24.93
2019-02-12T07:19:05.106Z,27.00
2019-02-12T07:21:44.044Z,27.67
2019-02-12T07:24:22.196Z,27.57
2019-02-12T07:27:13.417Z,28.90
2019-02-12T07:29:55.463Z,30.03
2019-02-12T07:32:31.419Z,27.60
2019-02-12T07:35:01.263Z,28.13
2019-02-12T07:37:36.974Z,26.60
2019-02-12T07:40:15.687Z,27.13
2019-02-12T07:42:48.281Z,26.97
2019-02-12T07:45:44.243Z,24.37
2019-02-12T07:48:37.032Z,24.83
2019-02-12T07:51:16.029Z,26.73
2019-02-12T07:54:12.855Z,25.77
2019-02-12T07:57:02.130Z,23.90
2019-02-12T07:59:47.307Z,24.47
2019-02-12T08:02:42.846Z,23.87
2019-02-12T08:05:24.746Z,24.73
2019-02-12T08:08:24.739Z,24.93
2019-02-12T08:11:00.623Z,24.37
2019-02-12T08:13:36.467Z,24.93
2019-02-12T08:16:24.512Z,25.03
2019-02-12T08:19:03.486Z,29.53
2019-02-12T08:21:45.091Z,25.03
2019-02-12T08:24:24.219Z,27.27
2019-02-12T08:27:02.608Z,24.10
2019-02-12T08:29:50.213Z,24.83
2019-02-12T08:32:24.828Z,24.97
2019-02-12T08:35:09.320Z,24.43
2019-02-12T08:37:42.087Z,22.90
2019-02-12T08:40:11.900Z,27.10
2019-02-12T08:42:41.735Z,24.33
2019-02-12T08:45:26.578Z,25.00
2019-02-12T08:48:08.817Z,23.63
2019-02-12T08:50:44.260Z,26.77
2019-02-12T08:53:17.092Z,26.97
2019-02-12T08:55:52.860Z,23.03
2019-02-12T08:58:25.700Z,22.57
2019-02-12T09:01:01.300Z,22.97
2019-02-12T09:04:04.638Z,24.87
2019-02-12T09:06:37.587Z,22.63
2019-02-12T09:09:22.483Z,24.17
2019-02-12T09:11:58.087Z,22.17
2019-02-12T09:14:27.927Z,21.83
2019-02-12T09:17:06.955Z,21.63
2019-02-12T09:19:45.847Z,21.80
2019-02-12T09:22:18.747Z,23.75
2019-02-12T09:25:06.709Z,22.10
2019-02-12T09:27:45.448Z,20.97
2019-02-12T09:30:31.819Z,22.77
2019-02-12T09:33:19.660Z,21.80
2019-02-12T09:35:55.330Z,21.37
2019-02-12T09:38:25.348Z,20.10
2019-02-12T09:41:10.532Z,21.30
2019-02-12T09:43:49.664Z,19.00
2019-02-12T09:46:45.459Z,21.00
2019-02-12T09:50:05.488Z,19.30
2019-02-12T09:52:54.611Z,19.33
2019-02-12T09:55:30.655Z,18.47
2019-02-12T09:58:06.375Z,17.73
2019-02-12T10:00:39.184Z,17.83
2019-02-12T10:03:17.943Z,18.67
2019-02-12T10:05:56.820Z,18.80
2019-02-12T10:08:58.848Z,18.47
2019-02-12T10:11:37.896Z,17.47
2019-02-12T10:14:17.051Z,17.30
2019-02-12T10:17:13.771Z,16.70
2019-02-12T10:19:43.639Z,16.80
2019-02-12T10:22:31.056Z,16.83
2019-02-12T10:25:09.688Z,18.30
2019-02-12T10:28:10.289Z,18.33
2019-02-12T10:30:43.222Z,18.10
2019-02-12T10:33:09.224Z,17.93
2019-02-12T10:35:35.448Z,16.07
2019-02-12T10:38:01.512Z,17.57
2019-02-12T10:40:27.538Z,17.83
2019-02-12T10:42:53.646Z,17.37
2019-02-12T10:45:19.798Z,16.70
2019-02-12T10:47:45.803Z,17.80
2019-02-12T10:50:11.979Z,18.63
2019-02-12T10:52:38.015Z,18.93
2019-02-12T10:55:04.547Z,17.00
2019-02-12T10:57:30.575Z,16.33
2019-02-12T10:59:56.689Z,19.00
2019-02-12T11:02:22.700Z,16.53
2019-02-12T11:04:48.732Z,17.53
2019-02-12T11:07:14.744Z,18.87
2019-02-12T11:09:40.880Z,17.23
2019-02-12T11:12:06.911Z,16.07
2019-02-12T11:14:32.969Z,17.07
2019-02-12T11:16:59.078Z,17.37
2019-02-12T11:19:25.103Z,19.97
2019-02-12T11:21:51.111Z,18.10
2019-02-12T11:24:17.134Z,17.63
2019-02-12T11:26:43.142Z,22.77
2019-02-12T11:29:09.167Z,20.00
2019-02-12T11:31:35.190Z,18.97
2019-02-12T11:34:01.227Z,17.63
2019-02-12T11:36:27.234Z,16.63
2019-02-12T11:38:53.249Z,15.70
2019-02-12T11:41:19.275Z,17.00
2019-02-12T11:43:45.290Z,14.80
2019-02-12T11:46:11.331Z,12.40
2019-02-12T11:48:37.339Z,12.63
2019-02-12T11:51:03.401Z,11.90
2019-02-12T11:53:29.404Z,12.03
2019-02-12T11:55:55.427Z,10.30
2019-02-12T11:58:21.439Z,9.40
2019-02-12T12:00:49.403Z,10.60
2019-02-12T12:03:15.415Z,8.40
2019-02-12T12:05:41.446Z,9.73
2019-02-12T12:08:07.456Z,10.50
2019-02-12T12:10:33.507Z,10.37
2019-02-12T12:12:59.515Z,9.70
2019-02-12T12:15:25.613Z,8.10
2019-02-12T12:17:51.632Z,9.33
2019-02-12T12:20:17.692Z,9.60
2019-02-12T12:22:43.703Z,8.83
2019-02-12T12:25:11.143Z,8.87
2019-02-12T12:27:37.151Z,9.20
2019-02-12T12:30:06.587Z,8.67
2019-02-12T12:32:32.599Z,7.97
2019-02-12T12:34:59.203Z,8.10
2019-02-12T12:37:25.339Z,8.30
2019-02-12T12:39:51.372Z,9.53
2019-02-12T12:42:17.479Z,8.97
2019-02-12T12:44:43.487Z,7.00
2019-02-12T12:47:09.520Z,6.70
2019-02-12T12:49:35.527Z,6.33
2019-02-12T12:52:01.896Z,7.03
2019-02-12T12:54:27.903Z,6.77
2019-02-12T12:56:53.935Z,6.27
2019-02-12T12:59:19.936Z,6.03
2019-02-12T13:01:45.973Z,6.10
2019-02-12T13:04:11.979Z,6.13
2019-02-12T13:06:38.040Z,5.77
2019-02-12T13:09:04.895Z,5.87
2019-02-12T13:11:30.928Z,6.03
2019-02-12T13:13:56.941Z,5.50
2019-02-12T13:16:22.966Z,4.80
2019-02-12T13:18:48.992Z,4.90
2019-02-12T13:21:15.020Z,3.60
2019-02-12T13:23:41.044Z,4.13
2019-02-12T13:26:07.091Z,4.07
2019-02-12T13:28:33.120Z,4.57
2019-02-12T13:30:59.131Z,4.77
2019-02-12T13:33:26.537Z,3.77
2019-02-12T13:35:52.788Z,4.83
2019-02-12T13:38:18.811Z,5.45
2019-02-12T13:40:44.839Z,4.67
2019-02-12T13:43:10.859Z,3.97
2019-02-12T13:45:36.899Z,3.90
2019-02-12T13:48:02.911Z,2.90
2019-02-12T13:50:28.943Z,4.53
2019-02-12T13:52:54.975Z,3.53
2019-02-12T13:55:22.607Z,3.70
2019-02-12T13:57:48.819Z,4.70
2019-02-12T14:00:18.640Z,4.17
2019-02-12T14:02:44.753Z,4.27
2019-02-12T14:05:13.183Z,4.50
2019-02-12T14:07:39.218Z,3.97
2019-02-12T14:10:06.951Z,4.57
2019-02-12T14:12:32.975Z,4.33
2019-02-12T14:14:58.982Z,4.23
2019-02-12T14:17:25.011Z,4.10
2019-02-12T14:19:51.023Z,4.13
2019-02-12T14:22:17.200Z,4.10
2019-02-12T14:24:43.207Z,4.07
2019-02-12T14:27:09.272Z,3.40
2019-02-12T14:29:35.399Z,2.70
2019-02-12T14:32:01.975Z,3.30
2019-02-12T14:34:28.011Z,4.00
2019-02-12T14:36:54.039Z,2.77
2019-02-12T14:39:20.063Z,3.90
2019-02-12T14:41:46.115Z,3.40
2019-02-12T14:44:12.142Z,3.53
2019-02-12T14:46:38.171Z,3.37
2019-02-12T14:49:04.184Z,4.17
2019-02-12T14:51:30.212Z,3.70
2019-02-12T14:53:56.236Z,2.83
2019-02-12T14:56:22.371Z,3.17
2019-02-12T14:58:48.379Z,3.40
2019-02-12T15:01:14.400Z,3.17
2019-02-12T15:03:40.431Z,2.97
2019-02-12T15:06:06.486Z,2.07
2019-02-12T15:08:32.609Z,2.80
2019-02-12T15:10:58.636Z,2.57
2019-02-12T15:13:24.659Z,3.07
2019-02-12T15:15:50.667Z,3.17
2019-02-12T15:18:16.776Z,3.27
2019-02-12T15:20:42.787Z,2.67
2019-02-12T15:23:08.823Z,2.40
2019-02-12T15:25:41.764Z,3.77
2019-02-12T15:28:02.759Z,2.77
2019-02-12T15:30:28.963Z,2.67
2019-02-12T15:32:55.675Z,2.97
2019-02-12T15:35:21.683Z,3.83
2019-02-12T15:37:47.821Z,3.10
2019-02-12T15:40:15.729Z,3.40
2019-02-12T15:42:41.755Z,2.93
2019-02-12T15:45:10.569Z,3.27
2019-02-12T15:47:36.596Z,3.00
2019-02-12T15:50:05.907Z,2.93
2019-02-12T15:52:31.951Z,2.70
2019-02-12T15:54:58.063Z,3.50
2019-02-12T15:57:24.886Z,2.93
2019-02-12T15:59:52.560Z,3.33
2019-02-12T16:02:20.023Z,2.97
2019-02-12T16:04:46.704Z,2.93
2019-02-12T16:07:13.967Z,2.63
2019-02-12T16:09:41.661Z,2.53
2019-02-12T16:12:07.834Z,2.93
2019-02-12T16:14:33.864Z,2.97
2019-02-12T16:16:59.902Z,2.63
2019-02-12T16:19:25.944Z,3.20
2019-02-12T16:21:51.955Z,3.20
2019-02-12T16:24:17.984Z,2.80
2019-02-12T16:26:43.996Z,2.23
2019-02-12T16:29:10.023Z,2.53
2019-02-12T16:31:36.038Z,3.07
2019-02-12T16:34:02.073Z,3.23
2019-02-12T16:36:28.085Z,2.80
2019-02-12T16:38:54.342Z,3.70
2019-02-12T16:41:20.356Z,3.80
2019-02-12T16:43:46.383Z,4.17
2019-02-12T16:46:15.609Z,3.70
2019-02-12T16:48:41.639Z,3.30
2019-02-12T16:51:07.658Z,3.43
2019-02-12T16:53:33.688Z,3.60
2019-02-12T16:56:07.955Z,4.00
2019-02-12T16:58:27.727Z,3.93
2019-02-12T17:00:53.731Z,4.80
2019-02-12T17:03:20.715Z,4.47
2019-02-12T17:05:46.723Z,4.70
2019-02-12T17:08:12.757Z,4.73
2019-02-12T17:10:38.800Z,4.80
2019-02-12T17:13:04.847Z,5.07
2019-02-12T17:15:30.859Z,4.47
2019-02-12T17:17:57.024Z,5.93
2019-02-12T17:20:23.134Z,6.07
2019-02-12T17:22:49.135Z,5.87
2019-02-12T17:25:15.179Z,82.93
2019-02-12T17:27:41.191Z,18.60
2019-02-12T17:30:11.099Z,11.90
2019-02-12T17:32:37.145Z,5.50
2019-02-12T17:35:04.252Z,5.03
2019-02-12T17:37:30.263Z,5.53
2019-02-12T17:39:56.300Z,5.10
2019-02-12T17:42:22.327Z,5.10
2019-02-12T17:44:48.943Z,5.37
2019-02-12T17:47:14.957Z,12.80
2019-02-12T17:49:40.987Z,7.90
2019-02-12T17:52:07.000Z,8.30
2019-02-12T17:54:33.027Z,7.00
2019-02-12T17:56:59.040Z,7.17
2019-02-12T17:59:25.071Z,7.00
2019-02-12T18:01:51.079Z,7.80
2019-02-12T18:04:17.093Z,8.30
2019-02-12T18:06:43.119Z,11.10
2019-02-12T18:09:09.169Z,10.30
2019-02-12T18:11:35.183Z,7.47
2019-02-12T18:14:01.209Z,7.33
2019-02-12T18:16:27.223Z,9.73
2019-02-12T18:18:53.252Z,8.83
2019-02-12T18:21:19.300Z,11.60
2019-02-12T18:23:45.372Z,15.20
2019-02-12T18:26:11.444Z,15.60
2019-02-12T18:28:37.451Z,13.90
2019-02-12T18:31:03.488Z,15.07
2019-02-12T18:33:29.500Z,12.37
2019-02-12T18:35:56.087Z,12.87
2019-02-12T18:38:22.095Z,13.07
2019-02-12T18:40:48.124Z,12.33
2019-02-12T18:43:14.133Z,10.13
2019-02-12T18:45:40.239Z,8.43
2019-02-12T18:48:06.251Z,7.50
2019-02-12T18:50:35.703Z,6.67
2019-02-12T18:53:01.707Z,7.03
2019-02-12T18:55:27.815Z,6.00
2019-02-12T18:57:53.866Z,6.57
2019-02-12T19:00:21.316Z,6.47
2019-02-12T19:02:47.353Z,6.43
2019-02-12T19:05:13.369Z,6.40
2019-02-12T19:07:39.379Z,5.83
2019-02-12T19:10:08.552Z,5.27
2019-02-12T19:12:34.572Z,6.07
2019-02-12T19:15:01.135Z,6.63
2019-02-12T19:17:27.147Z,8.50
2019-02-12T19:19:53.189Z,7.20
2019-02-12T19:22:22.681Z,8.17
2019-02-12T19:24:48.712Z,6.73
2019-02-12T19:27:14.730Z,7.17
2019-02-12T19:29:40.843Z,7.03
2019-02-12T19:32:06.856Z,7.80
2019-02-12T19:34:32.888Z,7.37
2019-02-12T19:37:06.652Z,7.47
2019-02-12T19:39:32.686Z,6.75
2019-02-12T19:41:58.696Z,36.03
2019-02-12T19:44:24.708Z,51.63
2019-02-12T19:46:50.735Z,8.07
2019-02-12T19:49:16.743Z,6.87
2019-02-12T19:51:42.775Z,7.30
2019-02-12T19:54:08.783Z,7.57
2019-02-12T19:56:34.828Z,8.00
2019-02-12T19:59:00.872Z,8.40
2019-02-12T20:01:26.879Z,8.40
2019-02-12T20:03:52.915Z,7.60
2019-02-12T20:06:18.927Z,7.90
2019-02-12T20:08:44.964Z,9.53
2019-02-12T20:11:11.154Z,7.27
2019-02-12T20:13:37.168Z,8.17
2019-02-12T20:16:03.210Z,7.00
2019-02-12T20:18:29.248Z,8.07
2019-02-12T20:20:55.296Z,10.10
2019-02-12T20:23:21.303Z,9.90
2019-02-12T20:25:47.318Z,12.57
2019-02-12T20:28:13.351Z,9.93
2019-02-12T20:30:39.479Z,10.63
2019-02-12T20:33:05.528Z,9.40
2019-02-12T20:35:36.360Z,10.33
2019-02-12T20:37:59.491Z,10.67
2019-02-12T20:40:25.506Z,13.20
2019-02-12T20:42:51.524Z,11.90
2019-02-12T20:45:18.112Z,12.50
2019-02-12T20:47:44.228Z,9.27
2019-02-12T20:50:14.775Z,10.93
2019-02-12T20:52:40.811Z,11.27
2019-02-12T20:55:07.731Z,11.13
2019-02-12T20:57:33.748Z,10.80
2019-02-12T20:59:59.775Z,13.70
2019-02-12T21:02:25.804Z,9.63
2019-02-12T21:04:51.835Z,11.00
2019-02-12T21:07:17.926Z,11.70
2019-02-12T21:09:43.959Z,11.37
2019-02-12T21:12:09.996Z,13.07
2019-02-12T21:14:36.031Z,13.93
2019-02-12T21:17:02.067Z,11.37
2019-02-12T21:19:28.080Z,10.90
2019-02-12T21:21:54.114Z,12.63
2019-02-12T21:24:20.160Z,13.37
2019-02-12T21:26:46.180Z,10.87
2019-02-12T21:29:12.208Z,12.23
2019-02-12T21:31:38.238Z,16.00
2019-02-12T21:34:04.271Z,10.80
2019-02-12T21:36:30.298Z,10.30
2019-02-12T21:38:56.327Z,14.43
2019-02-12T21:41:22.484Z,15.93
2019-02-12T21:43:48.595Z,13.63
2019-02-12T21:46:14.613Z,11.70
2019-02-12T21:48:40.620Z,10.30
2019-02-12T21:51:06.672Z,10.33
2019-02-12T21:53:32.708Z,9.60
2019-02-12T21:55:58.747Z,10.07
2019-02-12T21:58:24.828Z,9.77
2019-02-12T22:00:50.907Z,10.37
2019-02-12T22:03:22.803Z,13.20
2019-02-12T22:05:48.855Z,11.33
2019-02-12T22:08:15.418Z,10.30
2019-02-12T22:10:46.412Z,11.03
2019-02-12T22:13:12.144Z,10.17
2019-02-12T22:15:38.867Z,10.27
2019-02-12T22:18:05.312Z,11.70
2019-02-12T22:20:31.732Z,12.47
2019-02-12T22:22:58.351Z,12.20
2019-02-12T22:25:24.722Z,13.77
2019-02-12T22:27:51.416Z,12.60
2019-02-12T22:30:21.665Z,15.55
2019-02-12T22:32:48.326Z,13.70
2019-02-12T22:35:15.064Z,14.50
2019-02-12T22:37:41.672Z,14.47
2019-02-12T22:40:10.195Z,14.77
2019-02-12T22:42:36.291Z,15.30
2019-02-12T22:45:03.931Z,14.77
2019-02-12T22:47:29.937Z,15.67
2019-02-12T22:49:55.990Z,17.50
2019-02-12T22:52:22.135Z,17.20
2019-02-12T22:54:48.155Z,14.63
2019-02-12T22:57:14.199Z,13.83
2019-02-12T23:00:00.159Z,15.17
2019-02-12T23:02:26.347Z,14.73
2019-02-12T23:04:52.380Z,15.90
2019-02-12T23:07:18.392Z,16.77
2019-02-12T23:09:44.415Z,15.50
2019-02-12T23:12:10.467Z,13.53
2019-02-12T23:14:36.591Z,13.27
2019-02-12T23:17:03.380Z,16.47
2019-02-12T23:19:29.569Z,19.93
2019-02-12T23:21:55.649Z,17.60
2019-02-12T23:24:21.684Z,17.60
2019-02-12T23:26:47.727Z,14.30
2019-02-12T23:29:13.768Z,14.33
2019-02-12T23:31:39.763Z,14.33
2019-02-12T23:34:05.801Z,13.53
2019-02-12T23:36:31.812Z,13.53
2019-02-12T23:38:57.851Z,14.87
2019-02-12T23:41:23.859Z,15.03
2019-02-12T23:43:49.914Z,14.77
2019-02-12T23:46:15.955Z,13.17
2019-02-12T23:48:41.987Z,14.50
2019-02-12T23:51:08.024Z,13.87
2019-02-12T23:53:34.035Z,12.97
2019-02-12T23:56:00.060Z,13.33
2019-02-12T23:58:26.067Z,13.03
